createdAt,value
2017-01-31T00:00:17.928Z,969.89
2017-01-31T00:00:47.973Z,969.92
2017-01-31T00:01:17.996Z,969.9
2017-01-31T00:01:48.029Z,969.92
2017-01-31T00:02:18.063Z,969.92
2017-01-31T00:02:48.093Z,969.89
2017-01-31T00:03:18.129Z,969.92
2017-01-31T00:03:48.163Z,969.88
2017-01-31T00:04:18.197Z,969.87
2017-01-31T00:04:48.230Z,969.85
2017-01-31T00:05:18.263Z,969.85
2017-01-31T00:05:48.297Z,969.85
2017-01-31T00:06:18.331Z,969.83
2017-01-31T00:06:48.364Z,969.85
2017-01-31T00:07:18.398Z,969.87
2017-01-31T00:07:48.431Z,969.85
2017-01-31T00:08:18.465Z,969.87
2017-01-31T00:08:48.525Z,969.86
2017-01-31T00:09:18.532Z,969.89
2017-01-31T00:09:48.564Z,969.84
2017-01-31T00:10:18.598Z,969.86
2017-01-31T00:10:48.635Z,969.85
2017-01-31T00:11:18.665Z,969.82
2017-01-31T00:11:48.703Z,969.85
2017-01-31T00:12:18.731Z,969.86
2017-01-31T00:12:48.765Z,969.79
2017-01-31T00:13:18.798Z,969.78
2017-01-31T00:13:48.862Z,969.79
2017-01-31T00:14:18.865Z,969.77
2017-01-31T00:14:48.899Z,969.77
2017-01-31T00:15:18.934Z,969.79
2017-01-31T00:15:48.966Z,969.81
2017-01-31T00:16:18.999Z,969.81
2017-01-31T00:16:49.036Z,969.82
2017-01-31T00:17:19.067Z,969.77
2017-01-31T00:17:49.099Z,969.78
2017-01-31T00:18:19.134Z,969.76
2017-01-31T00:18:49.167Z,969.78
2017-01-31T00:19:19.199Z,969.77
2017-01-31T00:19:49.235Z,969.79
2017-01-31T00:20:19.269Z,969.77
2017-01-31T00:20:49.299Z,969.8
2017-01-31T00:21:19.332Z,969.77
2017-01-31T00:21:49.370Z,969.83
2017-01-31T00:22:19.400Z,969.81
2017-01-31T00:22:49.432Z,969.79
2017-01-31T00:23:19.468Z,969.78
2017-01-31T00:23:49.511Z,969.78
2017-01-31T00:24:19.534Z,969.77
2017-01-31T00:24:49.567Z,969.82
2017-01-31T00:25:19.601Z,969.78
2017-01-31T00:25:49.636Z,969.81
2017-01-31T00:26:19.668Z,969.82
2017-01-31T00:26:49.700Z,969.83
2017-01-31T00:27:19.737Z,969.85
2017-01-31T00:27:49.768Z,969.87
2017-01-31T00:28:19.802Z,969.87
2017-01-31T00:28:49.834Z,969.84
2017-01-31T00:29:19.869Z,969.83
2017-01-31T00:29:49.902Z,969.84
2017-01-31T00:30:19.935Z,969.85
2017-01-31T00:30:49.970Z,969.83
2017-01-31T00:31:20.002Z,969.84
2017-01-31T00:31:50.035Z,969.85
2017-01-31T00:32:20.069Z,969.83
2017-01-31T00:32:50.104Z,969.79
2017-01-31T00:33:20.135Z,969.82
2017-01-31T00:33:50.169Z,969.81
2017-01-31T00:34:20.203Z,969.78
2017-01-31T00:34:50.235Z,969.8
2017-01-31T00:35:20.274Z,969.79
2017-01-31T00:35:50.303Z,969.78
2017-01-31T00:36:20.336Z,969.74
2017-01-31T00:36:50.370Z,969.79
2017-01-31T00:37:20.401Z,969.77
2017-01-31T00:37:50.514Z,969.76
2017-01-31T00:38:20.470Z,969.75
2017-01-31T00:38:50.504Z,969.74
2017-01-31T00:39:20.536Z,969.74
2017-01-31T00:39:50.573Z,969.74
2017-01-31T00:40:20.606Z,969.68
2017-01-31T00:40:50.641Z,969.69
2017-01-31T00:41:20.670Z,969.65
2017-01-31T00:41:50.704Z,969.69
2017-01-31T00:42:20.738Z,969.67
2017-01-31T00:42:50.770Z,969.68
2017-01-31T00:43:20.803Z,969.7
2017-01-31T00:43:50.836Z,969.69
2017-01-31T00:44:20.870Z,969.69
2017-01-31T00:44:50.905Z,969.66
2017-01-31T00:45:20.938Z,969.65
2017-01-31T00:45:50.971Z,969.64
2017-01-31T00:46:21.005Z,969.6
2017-01-31T00:46:51.037Z,969.59
2017-01-31T00:47:21.070Z,969.61
2017-01-31T00:47:51.104Z,969.62
2017-01-31T00:48:21.136Z,969.68
2017-01-31T00:48:51.170Z,969.67
2017-01-31T00:49:21.204Z,969.63
2017-01-31T00:49:51.237Z,969.62
2017-01-31T00:50:21.271Z,969.65
2017-01-31T00:50:51.303Z,969.65
2017-01-31T00:51:21.336Z,969.62
2017-01-31T00:51:51.370Z,969.6
2017-01-31T00:52:21.406Z,969.65
2017-01-31T00:52:51.437Z,969.63
2017-01-31T00:53:21.472Z,969.64
2017-01-31T00:53:51.504Z,969.65
2017-01-31T00:54:21.540Z,969.64
2017-01-31T00:54:51.572Z,969.61
2017-01-31T00:55:21.605Z,969.61
2017-01-31T00:55:51.638Z,969.59
2017-01-31T00:56:21.670Z,969.62
2017-01-31T00:56:51.704Z,969.61
2017-01-31T00:57:21.738Z,969.6
2017-01-31T00:57:51.772Z,969.6
2017-01-31T00:58:21.808Z,969.61
2017-01-31T00:58:51.838Z,969.64
2017-01-31T00:59:21.873Z,969.64
2017-01-31T00:59:51.905Z,969.63
2017-01-31T01:00:21.939Z,969.62
2017-01-31T01:00:51.972Z,969.61
2017-01-31T01:01:22.005Z,969.64
2017-01-31T01:01:52.039Z,969.59
2017-01-31T01:02:22.073Z,969.59
2017-01-31T01:02:52.105Z,969.6
2017-01-31T01:03:22.138Z,969.6
2017-01-31T01:03:52.172Z,969.59
2017-01-31T01:04:22.206Z,969.6
2017-01-31T01:04:52.239Z,969.58
2017-01-31T01:05:22.273Z,969.55
2017-01-31T01:05:52.309Z,969.58
2017-01-31T01:06:22.338Z,969.54
2017-01-31T01:06:52.373Z,969.55
2017-01-31T01:07:22.408Z,969.58
2017-01-31T01:07:52.439Z,969.56
2017-01-31T01:08:22.473Z,969.55
2017-01-31T01:08:52.509Z,969.54
2017-01-31T01:09:22.547Z,969.55
2017-01-31T01:09:52.571Z,969.53
2017-01-31T01:10:22.608Z,969.5
2017-01-31T01:10:52.640Z,969.54
2017-01-31T01:11:22.675Z,969.54
2017-01-31T01:11:52.707Z,969.54
2017-01-31T01:12:22.739Z,969.56
2017-01-31T01:12:52.773Z,969.52
2017-01-31T01:13:22.805Z,969.55
2017-01-31T01:13:52.840Z,969.54
2017-01-31T01:14:22.877Z,969.57
2017-01-31T01:14:52.907Z,969.52
2017-01-31T01:15:22.943Z,969.53
2017-01-31T01:15:52.973Z,969.52
2017-01-31T01:16:23.006Z,969.52
2017-01-31T01:16:53.039Z,969.51
2017-01-31T01:17:23.074Z,969.49
2017-01-31T01:17:53.107Z,969.49
2017-01-31T01:18:23.140Z,969.46
2017-01-31T01:18:53.176Z,969.5
2017-01-31T01:19:23.208Z,969.49
2017-01-31T01:19:53.240Z,969.45
2017-01-31T01:20:23.273Z,969.47
2017-01-31T01:20:53.308Z,969.44
2017-01-31T01:21:23.341Z,969.45
2017-01-31T01:21:53.374Z,969.44
2017-01-31T01:22:23.407Z,969.43
2017-01-31T01:22:53.442Z,969.42
2017-01-31T01:23:23.474Z,969.44
2017-01-31T01:23:53.507Z,969.41
2017-01-31T01:24:23.541Z,969.42
2017-01-31T01:24:53.574Z,969.45
2017-01-31T01:25:23.607Z,969.41
2017-01-31T01:25:53.641Z,969.43
2017-01-31T01:26:23.674Z,969.42
2017-01-31T01:26:53.707Z,969.41
2017-01-31T01:27:23.740Z,969.4
2017-01-31T01:27:53.775Z,969.36
2017-01-31T01:28:23.808Z,969.38
2017-01-31T01:28:53.871Z,969.35
2017-01-31T01:29:23.875Z,969.37
2017-01-31T01:29:53.908Z,969.41
2017-01-31T01:30:23.940Z,969.39
2017-01-31T01:30:53.974Z,969.37
2017-01-31T01:31:24.008Z,969.34
2017-01-31T01:31:54.042Z,969.34
2017-01-31T01:32:24.074Z,969.33
2017-01-31T01:32:54.112Z,969.32
2017-01-31T01:33:24.142Z,969.36
2017-01-31T01:33:54.174Z,969.35
2017-01-31T01:34:24.210Z,969.34
2017-01-31T01:34:54.240Z,969.34
2017-01-31T01:35:24.275Z,969.34
2017-01-31T01:35:54.308Z,969.38
2017-01-31T01:36:24.343Z,969.32
2017-01-31T01:36:54.375Z,969.35
2017-01-31T01:37:24.409Z,969.35
2017-01-31T01:37:54.442Z,969.31
2017-01-31T01:38:24.474Z,969.3
2017-01-31T01:38:54.509Z,969.3
2017-01-31T01:39:24.541Z,969.29
2017-01-31T01:39:54.577Z,969.31
2017-01-31T01:40:24.608Z,969.28
2017-01-31T01:40:54.644Z,969.25
2017-01-31T01:41:24.678Z,969.27
2017-01-31T01:41:54.709Z,969.28
2017-01-31T01:42:24.746Z,969.24
2017-01-31T01:42:54.777Z,969.26
2017-01-31T01:43:24.809Z,969.24
2017-01-31T01:43:54.843Z,969.24
2017-01-31T01:44:24.877Z,969.21
2017-01-31T01:44:54.914Z,969.22
2017-01-31T01:45:24.943Z,969.24
2017-01-31T01:45:54.977Z,969.23
2017-01-31T01:46:25.011Z,969.22
2017-01-31T01:46:55.043Z,969.2
2017-01-31T01:47:25.077Z,969.2
2017-01-31T01:47:55.110Z,969.19
2017-01-31T01:48:25.144Z,969.19
2017-01-31T01:48:55.178Z,969.22
2017-01-31T01:49:25.212Z,969.22
2017-01-31T01:49:55.245Z,969.19
2017-01-31T01:50:25.276Z,969.2
2017-01-31T01:50:55.310Z,969.18
2017-01-31T01:51:25.346Z,969.23
2017-01-31T01:51:55.380Z,969.2
2017-01-31T01:52:25.410Z,969.18
2017-01-31T01:52:55.444Z,969.21
2017-01-31T01:53:25.477Z,969.19
2017-01-31T01:53:55.516Z,969.23
2017-01-31T01:54:25.544Z,969.19
2017-01-31T01:54:55.578Z,969.18
2017-01-31T01:55:25.615Z,969.17
2017-01-31T01:55:55.643Z,969.21
2017-01-31T01:56:25.678Z,969.16
2017-01-31T01:56:55.711Z,969.17
2017-01-31T01:57:25.744Z,969.17
2017-01-31T01:57:55.779Z,969.14
2017-01-31T01:58:25.812Z,969.14
2017-01-31T01:58:55.845Z,969.17
2017-01-31T01:59:25.879Z,969.16
2017-01-31T01:59:55.913Z,969.13
2017-01-31T02:00:25.974Z,969.13
2017-01-31T02:00:55.978Z,969.13
2017-01-31T02:01:26.016Z,969.14
2017-01-31T02:01:56.051Z,969.11
2017-01-31T02:02:26.078Z,969.1
2017-01-31T02:02:56.113Z,969.11
2017-01-31T02:03:26.148Z,969.07
2017-01-31T02:03:56.180Z,969.06
2017-01-31T02:04:26.212Z,969.05
2017-01-31T02:04:56.247Z,969.04
2017-01-31T02:05:26.281Z,969.02
2017-01-31T02:05:56.314Z,969.04
2017-01-31T02:06:26.347Z,968.99
2017-01-31T02:06:56.380Z,969
2017-01-31T02:07:26.415Z,969.01
2017-01-31T02:07:56.447Z,968.99
2017-01-31T02:08:26.479Z,968.99
2017-01-31T02:08:56.513Z,968.94
2017-01-31T02:09:26.547Z,968.97
2017-01-31T02:09:56.584Z,968.96
2017-01-31T02:10:26.613Z,968.93
2017-01-31T02:10:56.649Z,968.94
2017-01-31T02:11:26.681Z,968.95
2017-01-31T02:11:56.713Z,968.95
2017-01-31T02:12:26.749Z,968.96
2017-01-31T02:12:56.780Z,968.99
2017-01-31T02:13:26.815Z,968.97
2017-01-31T02:13:56.850Z,969
2017-01-31T02:14:26.880Z,969
2017-01-31T02:14:56.920Z,968.95
2017-01-31T02:15:26.948Z,968.97
2017-01-31T02:15:56.981Z,969.01
2017-01-31T02:16:27.041Z,968.99
2017-01-31T02:16:57.047Z,968.96
2017-01-31T02:17:27.079Z,968.96
2017-01-31T02:17:57.114Z,968.93
2017-01-31T02:18:27.148Z,968.95
2017-01-31T02:18:57.181Z,968.95
2017-01-31T02:19:27.218Z,968.95
2017-01-31T02:19:57.254Z,968.97
2017-01-31T02:20:27.284Z,968.97
2017-01-31T02:20:57.313Z,968.95
2017-01-31T02:21:27.347Z,968.94
2017-01-31T02:21:57.380Z,968.91
2017-01-31T02:22:27.414Z,968.94
2017-01-31T02:22:57.447Z,968.91
2017-01-31T02:23:27.481Z,968.86
2017-01-31T02:23:57.513Z,968.87
2017-01-31T02:24:27.546Z,968.89
2017-01-31T02:24:57.580Z,968.89
2017-01-31T02:25:27.615Z,968.87
2017-01-31T02:25:57.647Z,968.85
2017-01-31T02:26:27.688Z,968.85
2017-01-31T02:26:57.714Z,968.85
2017-01-31T02:27:27.748Z,968.82
2017-01-31T02:27:57.781Z,968.82
2017-01-31T02:28:27.814Z,968.79
2017-01-31T02:28:57.849Z,968.8
2017-01-31T02:29:27.884Z,968.81
2017-01-31T02:29:57.916Z,968.84
2017-01-31T02:30:27.948Z,968.84
2017-01-31T02:30:57.981Z,968.87
2017-01-31T02:31:28.018Z,968.82
2017-01-31T02:31:58.050Z,968.83
2017-01-31T02:32:28.082Z,968.78
2017-01-31T02:32:58.116Z,968.8
2017-01-31T02:33:28.151Z,968.8
2017-01-31T02:33:58.185Z,968.81
2017-01-31T02:34:28.217Z,968.77
2017-01-31T02:34:58.254Z,968.77
2017-01-31T02:35:28.286Z,968.74
2017-01-31T02:35:58.315Z,968.77
2017-01-31T02:36:28.352Z,968.79
2017-01-31T02:36:58.383Z,968.77
2017-01-31T02:37:28.415Z,968.75
2017-01-31T02:37:58.448Z,968.76
2017-01-31T02:38:28.483Z,968.74
2017-01-31T02:38:58.515Z,968.72
2017-01-31T02:39:28.549Z,968.76
2017-01-31T02:39:58.582Z,968.75
2017-01-31T02:40:28.614Z,968.78
2017-01-31T02:40:58.653Z,968.79
2017-01-31T02:41:28.682Z,968.75
2017-01-31T02:41:58.716Z,968.73
2017-01-31T02:42:28.748Z,968.77
2017-01-31T02:42:58.783Z,968.77
2017-01-31T02:43:28.816Z,968.75
2017-01-31T02:43:58.848Z,968.77
2017-01-31T02:44:28.883Z,968.79
2017-01-31T02:44:58.914Z,968.77
2017-01-31T02:45:28.951Z,968.76
2017-01-31T02:45:58.984Z,968.75
2017-01-31T02:46:29.016Z,968.78
2017-01-31T02:46:59.049Z,968.79
2017-01-31T02:47:29.083Z,968.77
2017-01-31T02:47:59.115Z,968.74
2017-01-31T02:48:29.150Z,968.73
2017-01-31T02:48:59.183Z,968.7
2017-01-31T02:49:29.217Z,968.71
2017-01-31T02:49:59.251Z,968.71
2017-01-31T02:50:29.285Z,968.72
2017-01-31T02:50:59.316Z,968.75
2017-01-31T02:51:29.352Z,968.8
2017-01-31T02:51:59.383Z,968.76
2017-01-31T02:52:29.418Z,968.74
2017-01-31T02:52:59.451Z,968.75
2017-01-31T02:53:29.485Z,968.74
2017-01-31T02:53:59.516Z,968.76
2017-01-31T02:54:29.550Z,968.72
2017-01-31T02:54:59.584Z,968.69
2017-01-31T02:55:29.618Z,968.7
2017-01-31T02:55:59.651Z,968.68
2017-01-31T02:56:29.685Z,968.71
2017-01-31T02:56:59.717Z,968.69
2017-01-31T02:57:29.750Z,968.7
2017-01-31T02:57:59.784Z,968.71
2017-01-31T02:58:29.819Z,968.75
2017-01-31T02:58:59.850Z,968.74
2017-01-31T02:59:29.884Z,968.77
2017-01-31T02:59:59.919Z,968.78
2017-01-31T03:00:29.953Z,968.82
2017-01-31T03:00:59.984Z,968.77
2017-01-31T03:01:30.016Z,968.78
2017-01-31T03:02:00.051Z,968.75
2017-01-31T03:02:30.084Z,968.75
2017-01-31T03:03:00.118Z,968.77
2017-01-31T03:03:30.151Z,968.78
2017-01-31T03:04:00.183Z,968.83
2017-01-31T03:04:30.220Z,968.81
2017-01-31T03:05:00.250Z,968.79
2017-01-31T03:05:30.287Z,968.82
2017-01-31T03:06:00.318Z,968.74
2017-01-31T03:06:30.379Z,968.74
2017-01-31T03:07:00.386Z,968.79
2017-01-31T03:07:30.416Z,968.83
2017-01-31T03:08:00.451Z,968.81
2017-01-31T03:08:30.484Z,968.83
2017-01-31T03:09:00.517Z,968.81
2017-01-31T03:09:30.555Z,968.81
2017-01-31T03:10:00.584Z,968.82
2017-01-31T03:10:30.619Z,968.83
2017-01-31T03:11:00.651Z,968.8
2017-01-31T03:11:30.685Z,968.84
2017-01-31T03:12:00.717Z,968.81
2017-01-31T03:12:30.755Z,968.79
2017-01-31T03:13:00.789Z,968.83
2017-01-31T03:13:30.819Z,968.8
2017-01-31T03:14:00.852Z,968.78
2017-01-31T03:14:30.891Z,968.79
2017-01-31T03:15:00.919Z,968.77
2017-01-31T03:15:30.952Z,968.74
2017-01-31T03:16:00.986Z,968.72
2017-01-31T03:16:31.019Z,968.72
2017-01-31T03:17:01.052Z,968.63
2017-01-31T03:17:31.085Z,968.7
2017-01-31T03:18:01.124Z,968.65
2017-01-31T03:18:31.152Z,968.67
2017-01-31T03:19:01.186Z,968.64
2017-01-31T03:19:31.220Z,968.67
2017-01-31T03:20:01.253Z,968.64
2017-01-31T03:20:31.294Z,968.64
2017-01-31T03:21:01.326Z,968.62
2017-01-31T03:21:31.364Z,968.61
2017-01-31T03:22:01.386Z,968.59
2017-01-31T03:22:31.419Z,968.63
2017-01-31T03:23:01.455Z,968.61
2017-01-31T03:23:31.487Z,968.63
2017-01-31T03:24:01.519Z,968.65
2017-01-31T03:24:31.550Z,968.67
2017-01-31T03:25:01.586Z,968.68
2017-01-31T03:25:31.620Z,968.67
2017-01-31T03:26:01.652Z,968.66
2017-01-31T03:26:31.687Z,968.65
2017-01-31T03:27:01.721Z,968.63
2017-01-31T03:27:31.751Z,968.61
2017-01-31T03:28:01.785Z,968.62
2017-01-31T03:28:31.823Z,968.6
2017-01-31T03:29:01.854Z,968.59
2017-01-31T03:29:31.885Z,968.59
2017-01-31T03:30:01.923Z,968.62
2017-01-31T03:30:31.953Z,968.59
2017-01-31T03:31:01.985Z,968.59
2017-01-31T03:31:32.018Z,968.57
2017-01-31T03:32:02.052Z,968.56
2017-01-31T03:32:32.085Z,968.56
2017-01-31T03:33:02.120Z,968.57
2017-01-31T03:33:32.153Z,968.59
2017-01-31T03:34:02.189Z,968.61
2017-01-31T03:34:32.221Z,968.53
2017-01-31T03:35:02.258Z,968.53
2017-01-31T03:35:32.285Z,968.53
2017-01-31T03:36:02.321Z,968.57
2017-01-31T03:36:32.356Z,968.5
2017-01-31T03:37:02.388Z,968.54
2017-01-31T03:37:32.421Z,968.56
2017-01-31T03:38:02.462Z,968.53
2017-01-31T03:38:32.486Z,968.57
2017-01-31T03:39:02.520Z,968.54
2017-01-31T03:39:32.553Z,968.61
2017-01-31T03:40:02.588Z,968.61
2017-01-31T03:40:32.624Z,968.7
2017-01-31T03:41:02.653Z,968.69
2017-01-31T03:41:32.685Z,968.73
2017-01-31T03:42:02.720Z,968.68
2017-01-31T03:42:32.754Z,968.67
2017-01-31T03:43:02.785Z,968.62
2017-01-31T03:43:32.821Z,968.6
2017-01-31T03:44:02.855Z,968.61
2017-01-31T03:44:32.886Z,968.62
2017-01-31T03:45:02.920Z,968.67
2017-01-31T03:45:32.956Z,968.68
2017-01-31T03:46:02.987Z,968.75
2017-01-31T03:46:33.021Z,968.74
2017-01-31T03:47:03.055Z,968.74
2017-01-31T03:47:33.089Z,968.76
2017-01-31T03:48:03.119Z,968.71
2017-01-31T03:48:33.153Z,968.68
2017-01-31T03:49:03.186Z,968.66
2017-01-31T03:49:33.220Z,968.66
2017-01-31T03:50:03.253Z,968.64
2017-01-31T03:50:33.291Z,968.7
2017-01-31T03:51:03.318Z,968.68
2017-01-31T03:51:33.353Z,968.69
2017-01-31T03:52:03.386Z,968.71
2017-01-31T03:52:33.422Z,968.71
2017-01-31T03:53:03.457Z,968.76
2017-01-31T03:53:33.487Z,968.73
2017-01-31T03:54:03.529Z,968.73
2017-01-31T03:54:33.552Z,968.73
2017-01-31T03:55:03.586Z,968.7
2017-01-31T03:55:33.620Z,968.71
2017-01-31T03:56:03.654Z,968.66
2017-01-31T03:56:33.686Z,968.66
2017-01-31T03:57:03.719Z,968.68
2017-01-31T03:57:33.755Z,968.71
2017-01-31T03:58:03.786Z,968.69
2017-01-31T03:58:33.820Z,968.76
2017-01-31T03:59:03.853Z,968.73
2017-01-31T03:59:33.886Z,968.74
2017-01-31T04:00:03.920Z,968.71
2017-01-31T04:00:33.953Z,968.66
2017-01-31T04:01:03.987Z,968.63
2017-01-31T04:01:34.021Z,968.6
2017-01-31T04:02:04.054Z,968.63
2017-01-31T04:02:34.088Z,968.63
2017-01-31T04:03:04.121Z,968.63
2017-01-31T04:03:34.154Z,968.64
2017-01-31T04:04:04.195Z,968.58
2017-01-31T04:04:34.222Z,968.62
2017-01-31T04:05:04.253Z,968.62
2017-01-31T04:05:34.287Z,968.67
2017-01-31T04:06:04.321Z,968.68
2017-01-31T04:06:34.353Z,968.67
2017-01-31T04:07:04.388Z,968.67
2017-01-31T04:07:34.423Z,968.62
2017-01-31T04:08:04.452Z,968.61
2017-01-31T04:08:34.488Z,968.61
2017-01-31T04:09:04.523Z,968.63
2017-01-31T04:09:34.555Z,968.59
2017-01-31T04:10:04.588Z,968.6
2017-01-31T04:10:34.622Z,968.59
2017-01-31T04:11:04.655Z,968.56
2017-01-31T04:11:34.688Z,968.57
2017-01-31T04:12:04.720Z,968.58
2017-01-31T04:12:34.755Z,968.6
2017-01-31T04:13:04.788Z,968.63
2017-01-31T04:13:34.820Z,968.64
2017-01-31T04:14:04.854Z,968.62
2017-01-31T04:14:34.887Z,968.62
2017-01-31T04:15:04.931Z,968.62
2017-01-31T04:15:34.953Z,968.59
2017-01-31T04:16:04.987Z,968.6
2017-01-31T04:16:35.020Z,968.55
2017-01-31T04:17:05.061Z,968.55
2017-01-31T04:17:35.087Z,968.54
2017-01-31T04:18:05.118Z,968.55
2017-01-31T04:18:35.153Z,968.59
2017-01-31T04:19:05.187Z,968.57
2017-01-31T04:19:35.221Z,968.53
2017-01-31T04:20:05.252Z,968.56
2017-01-31T04:20:35.287Z,968.53
2017-01-31T04:21:05.323Z,968.55
2017-01-31T04:21:35.352Z,968.57
2017-01-31T04:22:05.386Z,968.54
2017-01-31T04:22:35.421Z,968.52
2017-01-31T04:23:05.455Z,968.57
2017-01-31T04:23:35.492Z,968.55
2017-01-31T04:24:05.535Z,968.55
2017-01-31T04:24:35.554Z,968.57
2017-01-31T04:25:05.589Z,968.57
2017-01-31T04:25:35.623Z,968.58
2017-01-31T04:26:05.655Z,968.55
2017-01-31T04:26:35.688Z,968.58
2017-01-31T04:27:05.724Z,968.56
2017-01-31T04:27:35.756Z,968.57
2017-01-31T04:28:05.789Z,968.51
2017-01-31T04:28:35.820Z,968.52
2017-01-31T04:29:05.855Z,968.55
2017-01-31T04:29:35.889Z,968.55
2017-01-31T04:30:05.922Z,968.54
2017-01-31T04:30:35.954Z,968.53
2017-01-31T04:31:05.988Z,968.5
2017-01-31T04:31:36.022Z,968.46
2017-01-31T04:32:06.054Z,968.47
2017-01-31T04:32:36.088Z,968.5
2017-01-31T04:33:06.121Z,968.48
2017-01-31T04:33:36.159Z,968.48
2017-01-31T04:34:06.189Z,968.46
2017-01-31T04:34:36.221Z,968.48
2017-01-31T04:35:06.254Z,968.46
2017-01-31T04:35:36.288Z,968.47
2017-01-31T04:36:06.334Z,968.46
2017-01-31T04:36:36.355Z,968.46
2017-01-31T04:37:06.388Z,968.44
2017-01-31T04:37:36.420Z,968.43
2017-01-31T04:38:06.478Z,968.45
2017-01-31T04:38:36.487Z,968.43
2017-01-31T04:39:06.545Z,968.47
2017-01-31T04:39:36.554Z,968.45
2017-01-31T04:40:06.591Z,968.44
2017-01-31T04:40:36.622Z,968.44
2017-01-31T04:41:06.658Z,968.4
2017-01-31T04:41:36.689Z,968.38
2017-01-31T04:42:06.720Z,968.37
2017-01-31T04:42:36.759Z,968.38
2017-01-31T04:43:06.789Z,968.42
2017-01-31T04:43:36.830Z,968.38
2017-01-31T04:44:06.859Z,968.39
2017-01-31T04:44:36.887Z,968.38
2017-01-31T04:45:06.924Z,968.37
2017-01-31T04:45:36.953Z,968.4
2017-01-31T04:46:07.010Z,968.43
2017-01-31T04:46:37.022Z,968.4
2017-01-31T04:47:07.059Z,968.37
2017-01-31T04:47:37.087Z,968.4
2017-01-31T04:48:07.122Z,968.36
2017-01-31T04:48:37.155Z,968.36
2017-01-31T04:49:07.189Z,968.35
2017-01-31T04:49:37.221Z,968.37
2017-01-31T04:50:07.256Z,968.33
2017-01-31T04:50:37.288Z,968.35
2017-01-31T04:51:07.323Z,968.32
2017-01-31T04:51:37.355Z,968.36
2017-01-31T04:52:07.388Z,968.33
2017-01-31T04:52:37.421Z,968.31
2017-01-31T04:53:07.453Z,968.3
2017-01-31T04:53:37.489Z,968.33
2017-01-31T04:54:07.527Z,968.33
2017-01-31T04:54:37.556Z,968.34
2017-01-31T04:55:07.587Z,968.36
2017-01-31T04:55:37.622Z,968.31
2017-01-31T04:56:07.656Z,968.3
2017-01-31T04:56:37.690Z,968.34
2017-01-31T04:57:07.722Z,968.33
2017-01-31T04:57:37.760Z,968.33
2017-01-31T04:58:07.811Z,968.34
2017-01-31T04:58:37.822Z,968.31
2017-01-31T04:59:07.866Z,968.34
2017-01-31T04:59:37.890Z,968.34
2017-01-31T05:00:07.922Z,968.32
2017-01-31T05:00:37.957Z,968.33
2017-01-31T05:01:07.990Z,968.3
2017-01-31T05:01:38.022Z,968.31
2017-01-31T05:02:08.054Z,968.29
2017-01-31T05:02:38.093Z,968.27
2017-01-31T05:03:08.129Z,968.28
2017-01-31T05:03:38.172Z,968.3
2017-01-31T05:04:08.192Z,968.28
2017-01-31T05:04:38.223Z,968.24
2017-01-31T05:05:08.254Z,968.29
2017-01-31T05:05:38.288Z,968.29
2017-01-31T05:06:08.323Z,968.25
2017-01-31T05:06:38.358Z,968.28
2017-01-31T05:07:08.388Z,968.25
2017-01-31T05:07:38.421Z,968.27
2017-01-31T05:08:08.455Z,968.3
2017-01-31T05:08:38.489Z,968.29
2017-01-31T05:09:08.524Z,968.31
2017-01-31T05:09:38.557Z,968.28
2017-01-31T05:10:08.589Z,968.29
2017-01-31T05:10:38.623Z,968.28
2017-01-31T05:11:08.656Z,968.28
2017-01-31T05:11:38.689Z,968.28
2017-01-31T05:12:08.722Z,968.26
2017-01-31T05:12:38.762Z,968.27
2017-01-31T05:13:08.792Z,968.29
2017-01-31T05:13:38.824Z,968.3
2017-01-31T05:14:08.857Z,968.29
2017-01-31T05:14:38.892Z,968.25
2017-01-31T05:15:08.923Z,968.23
2017-01-31T05:16:39.024Z,968.28
2017-01-31T05:17:09.058Z,968.23
2017-01-31T05:17:39.108Z,968.23
2017-01-31T05:18:09.124Z,968.22
2017-01-31T05:18:39.157Z,968.26
2017-01-31T05:19:09.197Z,968.25
2017-01-31T05:19:39.224Z,968.23
2017-01-31T05:20:09.259Z,968.2
2017-01-31T05:20:39.292Z,968.23
2017-01-31T05:21:09.327Z,968.24
2017-01-31T05:21:39.360Z,968.22
2017-01-31T05:22:09.393Z,968.21
2017-01-31T05:22:39.440Z,968.21
2017-01-31T05:23:09.458Z,968.21
2017-01-31T05:23:39.492Z,968.2
2017-01-31T05:24:09.526Z,968.16
2017-01-31T05:24:39.560Z,968.17
2017-01-31T05:25:09.594Z,968.17
2017-01-31T05:25:39.627Z,968.2
2017-01-31T05:26:09.696Z,968.16
2017-01-31T05:26:39.692Z,968.2
2017-01-31T05:27:09.728Z,968.19
2017-01-31T05:27:39.760Z,968.18
2017-01-31T05:28:09.808Z,968.18
2017-01-31T05:28:39.826Z,968.2
2017-01-31T05:29:09.860Z,968.16
2017-01-31T05:29:39.895Z,968.16
2017-01-31T05:30:09.938Z,968.16
2017-01-31T05:30:39.959Z,968.19
2017-01-31T05:31:09.994Z,968.19
2017-01-31T05:31:40.028Z,968.19
2017-01-31T05:32:10.060Z,968.15
2017-01-31T05:32:40.093Z,968.17
2017-01-31T05:33:10.128Z,968.2
2017-01-31T05:33:40.162Z,968.2
2017-01-31T05:34:10.195Z,968.18
2017-01-31T05:34:40.269Z,968.18
2017-01-31T05:35:10.275Z,968.21
2017-01-31T05:35:40.327Z,968.22
2017-01-31T05:36:10.329Z,968.24
2017-01-31T05:36:40.363Z,968.23
2017-01-31T05:37:10.397Z,968.26
2017-01-31T05:37:40.437Z,968.23
2017-01-31T05:38:10.468Z,968.22
2017-01-31T05:38:40.495Z,968.22
2017-01-31T05:39:10.530Z,968.16
2017-01-31T05:39:40.626Z,968.18
2017-01-31T05:40:10.596Z,968.19
2017-01-31T05:40:40.633Z,968.14
2017-01-31T05:41:10.663Z,968.13
2017-01-31T05:41:40.697Z,968.13
2017-01-31T05:42:10.729Z,968.13
2017-01-31T05:42:40.765Z,968.16
2017-01-31T05:43:10.797Z,968.17
2017-01-31T05:43:40.830Z,968.16
2017-01-31T05:44:10.863Z,968.13
2017-01-31T05:44:40.897Z,968.12
2017-01-31T05:45:10.930Z,968.18
2017-01-31T05:45:41.027Z,968.15
2017-01-31T05:46:10.997Z,968.18
2017-01-31T05:46:41.030Z,968.17
2017-01-31T05:47:11.063Z,968.18
2017-01-31T05:47:41.098Z,968.18
2017-01-31T05:48:11.131Z,968.21
2017-01-31T05:48:41.163Z,968.19
2017-01-31T05:49:11.196Z,968.17
2017-01-31T05:49:41.282Z,968.19
2017-01-31T05:50:11.264Z,968.18
2017-01-31T05:50:41.297Z,968.19
2017-01-31T05:51:11.332Z,968.17
2017-01-31T05:51:41.371Z,968.19
2017-01-31T05:52:11.396Z,968.22
2017-01-31T05:52:41.431Z,968.21
2017-01-31T05:53:11.464Z,968.22
2017-01-31T05:53:41.497Z,968.23
2017-01-31T05:54:11.531Z,968.22
2017-01-31T05:54:41.564Z,968.2
2017-01-31T05:55:11.623Z,968.2
2017-01-31T05:55:41.629Z,968.1
2017-01-31T05:56:11.665Z,968.11
2017-01-31T05:56:41.707Z,968.1
2017-01-31T05:57:11.730Z,968.1
2017-01-31T05:57:41.765Z,968.07
2017-01-31T05:58:12.076Z,968.1
2017-01-31T05:58:41.843Z,968.1
2017-01-31T05:59:11.869Z,968.15
2017-01-31T05:59:41.901Z,968.1
2017-01-31T06:00:11.934Z,968.08
2017-01-31T06:00:41.966Z,968.08
2017-01-31T06:01:11.999Z,968.12
2017-01-31T06:01:42.036Z,968.11
2017-01-31T06:02:12.065Z,968.1
2017-01-31T06:02:42.099Z,968.12
2017-01-31T06:03:12.132Z,968.07
2017-01-31T06:03:42.165Z,968.05
2017-01-31T06:04:12.199Z,968.04
2017-01-31T06:04:42.233Z,968.02
2017-01-31T06:05:12.266Z,968.06
2017-01-31T06:05:42.298Z,968.05
2017-01-31T06:06:12.333Z,968.03
2017-01-31T06:06:42.365Z,968.01
2017-01-31T06:07:12.416Z,967.96
2017-01-31T06:07:42.433Z,967.95
2017-01-31T06:08:12.465Z,967.95
2017-01-31T06:08:42.500Z,967.99
2017-01-31T06:09:12.532Z,967.96
2017-01-31T06:09:42.565Z,967.95
2017-01-31T06:10:12.622Z,967.96
2017-01-31T06:10:42.633Z,967.95
2017-01-31T06:11:12.665Z,967.99
2017-01-31T06:11:42.700Z,967.99
2017-01-31T06:12:12.732Z,967.96
2017-01-31T06:12:42.766Z,967.96
2017-01-31T06:13:12.800Z,967.94
2017-01-31T06:13:42.836Z,967.9
2017-01-31T06:14:12.866Z,967.91
2017-01-31T06:14:42.900Z,967.85
2017-01-31T06:15:12.933Z,967.89
2017-01-31T06:15:42.966Z,967.87
2017-01-31T06:16:12.999Z,967.88
2017-01-31T06:16:43.058Z,967.86